Time;durP1;ratioP1;P1;durP2;ratioP2;P2;SDS_P1;SDS_P2;PMS_P1;PMS_P2;Temp;Humidity;BMP_temperature;BMP_pressure;BME280_temperature;BME280_humidity;BME280_pressure;Samples;Min_cycle;Max_cycle;Signal;HPM_P1;HPM_P2
2023/05/12 00:01:53;;;;;;;30.67;21.27;;;15.80;99.90;;;;;;5033694;28;20127;-75
2023/05/12 00:04:18;;;;;;;34.47;22.55;;;15.90;99.90;;;;;;5033685;28;20037;-75
2023/05/12 00:06:44;;;;;;;34.83;22.88;;;15.90;99.90;;;;;;5033696;28;20483;-75
2023/05/12 00:09:10;;;;;;;34.88;19.67;;;16.00;99.90;;;;;;5033587;28;20136;-75
2023/05/12 00:11:36;;;;;;;31.92;19.90;;;15.90;99.90;;;;;;5033425;28;20032;-75
2023/05/12 00:14:02;;;;;;;35.08;22.65;;;15.80;99.90;;;;;;5016342;28;20097;-75
2023/05/12 00:16:28;;;;;;;33.17;22.50;;;15.80;99.90;;;;;;5033328;28;20068;-75
2023/05/12 00:18:54;;;;;;;31.50;20.55;;;15.80;99.90;;;;;;5033456;28;20179;-75
2023/05/12 00:21:19;;;;;;;34.95;23.20;;;15.90;99.90;;;;;;5033370;28;20087;-75
2023/05/12 00:23:45;;;;;;;32.22;22.40;;;15.90;99.90;;;;;;5033001;28;20029;-75
2023/05/12 00:26:11;;;;;;;32.28;22.33;;;15.80;99.90;;;;;;5034107;28;20025;-74
2023/05/12 00:28:36;;;;;;;30.95;21.50;;;15.90;99.90;;;;;;5033376;28;20037;-76
2023/05/12 00:31:02;;;;;;;32.35;22.45;;;15.80;99.90;;;;;;5033081;28;20046;-76
2023/05/12 00:33:29;;;;;;;33.97;23.10;;;15.70;99.90;;;;;;5032942;28;20350;-76
2023/05/12 00:35:55;;;;;;;33.20;22.75;;;15.70;99.90;;;;;;5033313;28;20029;-76
2023/05/12 00:38:21;;;;;;;33.13;22.00;;;15.80;99.90;;;;;;5016215;28;20041;-76
2023/05/12 00:40:46;;;;;;;32.05;22.67;;;15.80;99.90;;;;;;5015345;28;20037;-76
2023/05/12 00:43:12;;;;;;;31.17;21.23;;;15.80;99.90;;;;;;5033193;28;20113;-77
2023/05/12 00:45:38;;;;;;;29.77;21.02;;;15.70;99.90;;;;;;5032616;28;20036;-76
2023/05/12 00:48:05;;;;;;;31.85;21.10;;;15.70;99.90;;;;;;5033012;28;20030;-77
2023/05/12 00:50:31;;;;;;;28.30;19.65;;;15.70;99.90;;;;;;5033266;28;20034;-74
2023/05/12 00:52:59;;;;;;;30.08;20.23;;;15.80;99.90;;;;;;5033230;28;20333;-75
2023/05/12 00:55:25;;;;;;;;;;;15.80;99.90;;;;;;5033388;28;20065;-76
2023/05/12 00:57:51;;;;;;;25.30;18.08;;;15.80;99.90;;;;;;5032587;28;19971;-76
2023/05/12 01:00:17;;;;;;;23.48;17.63;;;15.80;99.90;;;;;;5032374;28;20053;-75
2023/05/12 01:02:43;;;;;;;27.20;18.67;;;15.70;99.90;;;;;;5032322;28;20036;-76
2023/05/12 01:05:10;;;;;;;29.33;19.75;;;15.70;99.90;;;;;;5014327;28;20148;-76
2023/05/12 01:07:37;;;;;;;33.88;20.33;;;15.70;99.90;;;;;;5014792;28;20037;-76
2023/05/12 01:10:03;;;;;;;28.17;19.85;;;15.70;99.90;;;;;;5014573;28;20029;-75
2023/05/12 01:12:31;;;;;;;28.60;20.58;;;15.70;99.90;;;;;;5031862;28;20049;-75
2023/05/12 01:14:57;;;;;;;29.77;20.77;;;15.60;99.90;;;;;;5032312;28;20168;-76
2023/05/12 01:17:32;;;;;;;30.10;21.25;;;15.60;99.90;;;;;;5032805;28;20018;-75
2023/05/12 01:20:00;;;;;;;30.20;21.45;;;15.60;99.90;;;;;;5011836;28;20038;-75
2023/05/12 01:22:30;;;;;;;33.72;21.98;;;15.60;99.90;;;;;;5027625;28;20037;-76
2023/05/12 01:25:08;;;;;;;26.08;18.80;;;15.60;99.90;;;;;;5031813;28;20136;-75
2023/05/12 01:27:38;;;;;;;29.40;20.48;;;15.60;99.90;;;;;;5014381;28;20038;-75
2023/05/12 01:30:05;;;;;;;29.65;19.38;;;15.60;99.90;;;;;;5031858;28;20067;-74
2023/05/12 01:32:30;;;;;;;34.63;21.13;;;15.60;99.90;;;;;;5032574;28;20087;-75
2023/05/12 01:34:56;;;;;;;32.42;19.42;;;15.70;99.90;;;;;;5014394;28;20030;-75
2023/05/12 01:37:25;;;;;;;29.70;20.25;;;15.70;99.90;;;;;;5031887;28;20045;-74
2023/05/12 01:39:51;;;;;;;29.55;19.98;;;15.60;99.90;;;;;;5031766;28;20037;-74
2023/05/12 01:42:17;;;;;;;28.38;19.60;;;15.70;99.90;;;;;;5031546;28;20117;-75
2023/05/12 01:44:42;;;;;;;28.58;20.40;;;15.70;99.90;;;;;;5031819;28;20108;-75
2023/05/12 01:47:10;;;;;;;26.65;20.10;;;15.70;99.90;;;;;;5014549;28;20025;-74
2023/05/12 01:49:36;;;;;;;31.43;19.50;;;15.70;99.90;;;;;;5014151;28;20041;-75
2023/05/12 01:52:02;;;;;;;30.65;19.90;;;15.70;99.90;;;;;;5031539;28;20026;-75
2023/05/12 01:54:28;;;;;;;29.02;20.48;;;15.70;99.90;;;;;;5031675;28;20515;-75
2023/05/12 01:56:53;;;;;;;27.30;19.98;;;15.60;99.90;;;;;;5013801;28;20459;-76
2023/05/12 01:59:19;;;;;;;28.00;19.33;;;15.60;99.90;;;;;;5032024;28;20025;-75
2023/05/12 02:01:44;;;;;;;27.33;18.48;;;15.60;99.90;;;;;;5031137;28;20072;-75
2023/05/12 02:04:10;;;;;;;25.73;18.48;;;15.60;99.90;;;;;;5031232;28;20030;-74
2023/05/12 02:06:36;;;;;;;27.38;19.67;;;15.60;99.90;;;;;;5031793;28;20029;-74
2023/05/12 02:09:01;;;;;;;26.83;18.92;;;15.60;99.90;;;;;;5031507;28;20039;-74
2023/05/12 02:11:27;;;;;;;27.63;19.90;;;15.60;99.90;;;;;;5032085;28;20025;-76
2023/05/12 02:13:53;;;;;;;28.38;19.05;;;15.50;99.90;;;;;;5031233;28;20113;-75
2023/05/12 02:16:19;;;;;;;31.35;18.73;;;15.50;99.90;;;;;;5030907;28;20103;-76
2023/05/12 02:18:45;;;;;;;26.70;18.23;;;15.50;99.90;;;;;;5013787;28;20037;-75
2023/05/12 02:21:10;;;;;;;29.23;18.77;;;15.50;99.90;;;;;;5013765;28;20034;-74
2023/05/12 02:23:36;;;;;;;29.15;19.27;;;15.40;99.90;;;;;;5030964;28;20564;-73
2023/05/12 02:26:02;;;;;;;26.92;18.95;;;15.40;99.90;;;;;;5014062;28;20318;-74
2023/05/12 02:28:27;;;;;;;26.20;18.95;;;15.40;99.90;;;;;;5031040;28;20044;-75
2023/05/12 02:30:53;;;;;;;25.77;18.42;;;15.40;99.90;;;;;;5031042;28;20038;-74
2023/05/12 02:33:20;;;;;;;25.70;18.63;;;15.40;99.90;;;;;;5030783;28;20022;-75
2023/05/12 02:35:46;;;;;;;26.35;19.40;;;15.40;99.90;;;;;;5030991;28;20079;-74
2023/05/12 02:38:12;;;;;;;27.73;19.50;;;15.40;99.90;;;;;;5031638;28;20379;-75
2023/05/12 02:40:38;;;;;;;27.25;18.42;;;15.40;99.90;;;;;;5030776;28;20033;-75
2023/05/12 02:43:04;;;;;;;23.48;17.27;;;15.50;99.90;;;;;;5030814;28;20041;-74
2023/05/12 02:45:30;;;;;;;22.92;17.30;;;15.50;99.90;;;;;;5030898;28;20099;-75
2023/05/12 02:47:55;;;;;;;28.38;18.35;;;15.50;99.90;;;;;;5030816;28;20033;-75
2023/05/12 02:50:21;;;;;;;25.42;18.13;;;15.50;99.90;;;;;;5013684;28;20171;-77
2023/05/12 02:52:48;;;;;;;30.27;20.13;;;15.50;99.90;;;;;;5013344;28;20610;-74
2023/05/12 02:55:14;;;;;;;28.70;18.92;;;15.50;99.90;;;;;;5013076;28;20033;-75
2023/05/12 02:57:39;;;;;;;27.75;19.85;;;15.40;99.90;;;;;;5030540;28;20095;-77
2023/05/12 03:00:06;;;;;;;27.25;19.55;;;15.50;99.90;;;;;;5013129;28;20092;-76
2023/05/12 03:02:33;;;;;;;31.90;21.95;;;15.50;99.90;;;;;;5030699;28;20025;-70
2023/05/12 03:04:59;;;;;;;31.60;19.38;;;15.50;99.90;;;;;;5030999;28;20026;-75
2023/05/12 03:07:25;;;;;;;26.80;20.05;;;15.50;99.90;;;;;;5030612;28;20467;-74
2023/05/12 03:09:50;;;;;;;26.35;18.90;;;15.60;99.90;;;;;;5030367;28;20379;-75
2023/05/12 03:12:19;;;;;;;25.05;17.65;;;15.50;99.90;;;;;;5013100;28;20045;-75
2023/05/12 03:14:44;;;;;;;25.40;17.13;;;15.50;99.90;;;;;;5030887;28;20316;-75
2023/05/12 03:17:10;;;;;;;24.83;18.65;;;15.40;99.90;;;;;;5030873;28;20043;-74
2023/05/12 03:19:36;;;;;;;22.95;17.02;;;15.40;99.90;;;;;;5013072;28;20029;-75
2023/05/12 03:22:02;;;;;;;25.35;17.02;;;15.30;99.90;;;;;;5030353;28;20038;-73
2023/05/12 03:24:28;;;;;;;25.42;18.20;;;15.30;99.90;;;;;;5030289;28;20025;-75
2023/05/12 03:26:54;;;;;;;34.63;19.35;;;15.30;99.90;;;;;;5013125;28;20045;-74
2023/05/12 03:29:20;;;;;;;23.85;17.67;;;15.30;99.90;;;;;;5032996;28;20041;-74
2023/05/12 03:31:46;;;;;;;23.55;17.42;;;15.30;99.90;;;;;;5034700;28;20606;-75
2023/05/12 03:34:12;;;;;;;26.48;17.98;;;15.30;99.90;;;;;;5034821;28;20029;-74
2023/05/12 03:36:39;;;;;;;25.65;18.05;;;15.40;99.90;;;;;;5017045;28;20087;-75
2023/05/12 03:39:07;;;;;;;28.73;18.00;;;15.40;99.90;;;;;;5034593;28;20628;-74
2023/05/12 03:41:33;;;;;;;27.92;17.83;;;15.40;99.90;;;;;;5033956;28;20029;-73
2023/05/12 03:43:59;;;;;;;26.00;18.10;;;15.40;99.90;;;;;;5014923;28;20356;-74
2023/05/12 03:46:25;;;;;;;24.25;17.20;;;15.40;99.90;;;;;;5014444;28;20720;-74
2023/05/12 03:48:51;;;;;;;26.92;17.63;;;15.40;99.90;;;;;;5014329;28;20059;-75
2023/05/12 03:51:17;;;;;;;24.27;18.20;;;15.40;99.90;;;;;;5014270;28;20038;-75
2023/05/12 03:53:45;;;;;;;24.88;18.15;;;15.40;99.90;;;;;;4996733;28;20018;-74
2023/05/12 03:56:10;;;;;;;;;;;15.30;99.90;;;;;;5015090;28;20014;-76
2023/05/12 03:58:36;;;;;;;24.60;18.10;;;15.30;99.90;;;;;;5014078;28;20375;-75
2023/05/12 04:01:02;;;;;;;24.05;18.42;;;15.40;99.90;;;;;;5013931;28;20061;-75
2023/05/12 04:03:29;;;;;;;30.30;18.60;;;15.40;99.90;;;;;;4996603;28;20095;-74
2023/05/12 04:05:59;;;;;;;26.88;19.27;;;15.40;99.90;;;;;;5013939;28;20036;-76
2023/05/12 04:08:25;;;;;;;26.50;19.15;;;15.40;99.90;;;;;;5014339;28;20029;-75
2023/05/12 04:10:54;;;;;;;27.48;19.33;;;15.40;99.90;;;;;;4996515;28;20030;-75
2023/05/12 04:13:19;;;;;;;26.80;18.67;;;15.40;99.90;;;;;;5013829;28;20096;-74
2023/05/12 04:15:45;;;;;;;28.92;19.88;;;15.40;99.90;;;;;;5013673;28;20038;-74
2023/05/12 04:18:11;;;;;;;25.13;19.17;;;15.50;99.90;;;;;;5013796;28;20049;-74
2023/05/12 04:20:37;;;;;;;28.38;20.52;;;15.50;99.90;;;;;;5013596;28;20471;-74
2023/05/12 04:23:02;;;;;;;25.95;19.88;;;15.40;99.90;;;;;;5014097;28;20180;-74
2023/05/12 04:25:28;;;;;;;26.02;19.35;;;15.50;99.90;;;;;;5013440;28;20030;-74
2023/05/12 04:27:54;;;;;;;25.70;19.38;;;15.40;99.90;;;;;;5013522;28;20037;-74
2023/05/12 04:30:19;;;;;;;28.50;21.35;;;15.50;99.90;;;;;;5013681;28;20153;-75
2023/05/12 04:32:47;;;;;;;29.73;20.10;;;15.50;99.90;;;;;;5013249;28;20045;-74
2023/05/12 04:35:13;;;;;;;28.10;20.40;;;15.60;99.90;;;;;;5014033;28;20029;-75
2023/05/12 04:37:40;;;;;;;26.42;19.95;;;15.40;99.90;;;;;;5013144;28;20116;-75
2023/05/12 04:40:07;;;;;;;27.02;20.20;;;15.40;99.90;;;;;;4995736;28;20490;-74
2023/05/12 04:42:34;;;;;;;27.02;20.58;;;15.40;99.90;;;;;;5013029;28;20148;-75
2023/05/12 04:44:59;;;;;;;28.20;20.70;;;15.40;99.90;;;;;;5012995;28;20056;-74
2023/05/12 04:47:25;;;;;;;27.83;19.98;;;15.50;99.90;;;;;;5013552;28;20026;-76
2023/05/12 04:49:51;;;;;;;30.40;20.35;;;15.50;99.90;;;;;;4995840;28;20030;-74
2023/05/12 04:52:16;;;;;;;32.33;20.70;;;15.50;99.90;;;;;;4995762;28;20049;-75
2023/05/12 04:54:42;;;;;;;26.33;19.65;;;15.50;99.90;;;;;;5013309;28;20064;-74
2023/05/12 04:57:08;;;;;;;27.88;18.05;;;15.50;99.90;;;;;;4995575;28;20050;-76
2023/05/12 04:59:34;;;;;;;25.58;18.60;;;15.50;99.90;;;;;;5012956;28;20109;-74
2023/05/12 05:02:00;;;;;;;26.27;18.63;;;15.50;99.90;;;;;;5013115;28;20084;-75
2023/05/12 05:04:26;;;;;;;27.67;18.40;;;15.60;99.90;;;;;;5013254;28;20041;-74
2023/05/12 05:06:54;;;;;;;27.20;18.17;;;15.60;99.90;;;;;;5012952;28;20022;-74
2023/05/12 05:09:20;;;;;;;25.63;18.95;;;15.60;99.90;;;;;;5012751;28;20025;-75
2023/05/12 05:11:46;;;;;;;26.00;18.23;;;15.60;99.90;;;;;;4995442;28;20468;-75
2023/05/12 05:14:11;;;;;;;22.02;16.70;;;15.70;99.90;;;;;;5012903;28;20049;-72
2023/05/12 05:16:37;;;;;;;25.48;17.88;;;15.70;99.90;;;;;;5012446;28;20057;-74
2023/05/12 05:19:03;;;;;;;26.80;19.48;;;15.70;99.90;;;;;;5012647;28;20559;-75
2023/05/12 05:21:29;;;;;;;28.25;18.35;;;15.70;99.90;;;;;;5012365;28;20124;-75
2023/05/12 05:23:54;;;;;;;23.92;17.77;;;15.70;99.90;;;;;;5012749;28;20180;-75
2023/05/12 05:26:20;;;;;;;26.90;17.77;;;15.70;99.90;;;;;;5012979;28;20380;-75
2023/05/12 05:28:46;;;;;;;23.23;17.42;;;15.70;99.90;;;;;;5012539;28;20045;-75
2023/05/12 05:31:16;;;;;;;25.15;17.13;;;15.70;99.90;;;;;;5012160;28;20554;-74
2023/05/12 05:33:43;;;;;;;23.27;16.88;;;15.80;99.90;;;;;;4994821;28;20041;-74
2023/05/12 05:36:09;;;;;;;26.60;18.83;;;15.80;99.90;;;;;;5012387;28;20045;-74
2023/05/12 05:38:35;;;;;;;26.50;17.58;;;15.90;99.90;;;;;;5012074;28;20073;-76
2023/05/12 05:41:01;;;;;;;25.77;17.20;;;16.00;99.90;;;;;;5013170;28;20053;-73
2023/05/12 05:43:27;;;;;;;22.02;17.45;;;16.00;99.90;;;;;;5011982;28;20057;-72
2023/05/12 05:45:54;;;;;;;23.95;17.20;;;16.00;99.90;;;;;;5012076;28;20038;-73
2023/05/12 05:48:20;;;;;;;25.33;17.35;;;16.10;99.90;;;;;;4994481;28;20104;-73
2023/05/12 05:50:46;;;;;;;24.98;17.23;;;16.10;99.90;;;;;;5012269;28;20431;-71
2023/05/12 05:53:12;;;;;;;24.65;17.17;;;16.10;99.90;;;;;;5011873;28;20026;-73
2023/05/12 05:55:37;;;;;;;20.20;15.57;;;16.20;99.90;;;;;;5012199;28;20038;-71
2023/05/12 05:58:04;;;;;;;21.25;16.75;;;16.20;99.90;;;;;;5012060;28;20337;-72
2023/05/12 06:00:29;;;;;;;23.13;15.57;;;16.20;99.90;;;;;;5019849;28;20447;-74
2023/05/12 06:02:55;;;;;;;22.10;16.55;;;16.40;99.90;;;;;;5028537;28;20044;-73
2023/05/12 06:05:21;;;;;;;21.27;16.35;;;16.20;99.90;;;;;;5012266;28;20041;-73
2023/05/12 06:07:47;;;;;;;26.98;16.50;;;16.30;99.90;;;;;;5030272;28;20029;-74
2023/05/12 06:10:12;;;;;;;21.45;15.18;;;16.40;99.90;;;;;;5000373;28;20030;-75
2023/05/12 06:12:39;;;;;;;21.20;14.93;;;16.40;99.90;;;;;;5020861;28;20376;-74
2023/05/12 06:15:06;;;;;;;19.02;14.45;;;16.40;99.90;;;;;;5026880;28;20037;-74
2023/05/12 06:17:32;;;;;;;22.13;13.90;;;16.50;99.90;;;;;;4994639;28;20025;-74
2023/05/12 06:19:57;;;;;;;18.65;15.13;;;16.50;99.90;;;;;;5031618;28;20041;-72
2023/05/12 06:22:23;;;;;;;18.77;13.95;;;16.50;99.90;;;;;;5031268;28;20045;-73
2023/05/12 06:24:49;;;;;;;20.75;14.40;;;16.50;99.90;;;;;;5031428;28;20440;-75
2023/05/12 06:27:15;;;;;;;16.75;13.15;;;16.60;99.90;;;;;;5014047;28;20117;-73
2023/05/12 06:29:41;;;;;;;15.60;11.00;;;16.60;99.90;;;;;;5031501;28;20101;-74
2023/05/12 06:32:07;;;;;;;16.98;11.30;;;16.60;99.90;;;;;;5031473;28;20377;-71
2023/05/12 06:34:33;;;;;;;18.40;11.20;;;16.50;99.90;;;;;;5013406;28;20083;-71
2023/05/12 06:36:58;;;;;;;15.65;11.75;;;16.50;99.90;;;;;;5030734;28;20057;-72
2023/05/12 06:39:24;;;;;;;16.65;11.63;;;16.60;99.90;;;;;;5013557;28;20460;-72
2023/05/12 06:41:50;;;;;;;15.95;11.43;;;16.60;99.90;;;;;;5030796;28;20025;-74
2023/05/12 06:44:15;;;;;;;17.33;11.93;;;16.60;99.90;;;;;;5032105;28;20036;-75
2023/05/12 06:46:41;;;;;;;15.35;12.30;;;16.60;99.90;;;;;;5013518;28;20505;-75
2023/05/12 06:49:07;;;;;;;14.43;11.27;;;16.70;99.90;;;;;;5030768;28;20025;-73
2023/05/12 06:51:33;;;;;;;16.23;12.57;;;16.80;99.90;;;;;;5030634;28;20021;-74
2023/05/12 06:53:59;;;;;;;18.05;12.88;;;16.80;99.90;;;;;;5028138;28;20021;-72
2023/05/12 06:56:25;;;;;;;20.38;13.23;;;16.80;99.90;;;;;;5011635;28;20022;-71
2023/05/12 06:58:51;;;;;;;20.80;11.70;;;16.70;99.90;;;;;;5009741;28;20065;-72
2023/05/12 07:01:17;;;;;;;18.02;11.07;;;16.80;99.90;;;;;;4993226;28;20424;-72
2023/05/12 07:03:43;;;;;;;17.63;10.90;;;16.80;99.90;;;;;;5010639;28;20029;-73
2023/05/12 07:06:09;;;;;;;16.45;11.43;;;16.90;99.90;;;;;;5009584;28;20030;-73
2023/05/12 07:08:34;;;;;;;14.95;11.32;;;16.90;99.90;;;;;;5010698;28;20097;-74
2023/05/12 07:11:00;;;;;;;18.25;11.10;;;17.00;99.90;;;;;;5011126;28;20129;-75
2023/05/12 07:13:26;;;;;;;11.38;9.38;;;17.00;99.90;;;;;;5010692;28;20236;-72
2023/05/12 07:15:52;;;;;;;12.95;8.35;;;17.10;99.90;;;;;;5010497;28;20045;-74
2023/05/12 07:18:18;;;;;;;10.48;8.05;;;17.00;99.90;;;;;;5010536;28;20033;-72
2023/05/12 07:20:45;;;;;;;17.15;8.57;;;17.00;99.90;;;;;;5010764;28;20372;-74
2023/05/12 07:23:11;;;;;;;13.50;9.13;;;17.10;99.90;;;;;;5012355;28;20017;-72
2023/05/12 07:25:38;;;;;;;9.80;7.97;;;17.10;99.90;;;;;;5010462;28;20460;-73
2023/05/12 07:28:04;;;;;;;10.20;7.60;;;17.20;99.90;;;;;;5010669;28;20040;-74
2023/05/12 07:30:29;;;;;;;11.38;6.95;;;17.20;99.90;;;;;;5010147;28;20034;-73
2023/05/12 07:32:56;;;;;;;14.07;7.22;;;17.20;99.90;;;;;;4993355;28;20026;-72
2023/05/12 07:35:22;;;;;;;8.02;6.07;;;17.10;99.90;;;;;;5011228;28;20050;-71
2023/05/12 07:37:48;;;;;;;10.07;6.03;;;17.20;99.90;;;;;;4993198;28;20042;-74
2023/05/12 07:40:14;;;;;;;9.43;5.85;;;17.20;99.90;;;;;;5010515;28;20038;-75
2023/05/12 07:42:40;;;;;;;11.88;5.72;;;17.20;99.90;;;;;;5008985;28;20175;-74
2023/05/12 07:45:06;;;;;;;7.45;5.80;;;17.20;99.90;;;;;;5010200;28;20038;-74
2023/05/12 07:47:32;;;;;;;10.95;6.28;;;17.30;99.90;;;;;;5010707;28;20022;-73
2023/05/12 07:49:57;;;;;;;6.97;5.05;;;17.40;99.90;;;;;;5010060;28;20042;-74
2023/05/12 07:52:23;;;;;;;11.43;5.50;;;17.50;99.90;;;;;;5010115;28;20534;-75
2023/05/12 07:54:49;;;;;;;7.80;5.22;;;17.50;99.90;;;;;;5010465;28;20038;-76
2023/05/12 07:57:15;;;;;;;10.52;5.45;;;17.70;99.90;;;;;;5008965;28;20030;-74
2023/05/12 07:59:41;;;;;;;14.20;5.72;;;17.70;99.90;;;;;;5010386;28;20025;-74
2023/05/12 08:02:07;;;;;;;7.70;5.38;;;17.80;99.90;;;;;;5009331;28;20057;-76
2023/05/12 08:04:33;;;;;;;7.20;5.57;;;18.00;99.90;;;;;;4992536;28;20054;-75
2023/05/12 08:06:59;;;;;;;8.98;5.50;;;18.20;99.90;;;;;;5009873;28;20404;-74
2023/05/12 08:09:24;;;;;;;10.75;5.45;;;18.30;99.90;;;;;;5009971;28;20026;-74
2023/05/12 08:11:50;;;;;;;8.65;5.60;;;18.40;99.90;;;;;;5009749;28;20388;-76
2023/05/12 08:14:16;;;;;;;6.68;4.88;;;18.50;99.90;;;;;;5010280;28;20030;-74
2023/05/12 08:16:45;;;;;;;11.02;5.50;;;18.60;99.80;;;;;;4996000;28;20475;-74
2023/05/12 08:19:11;;;;;;;7.70;5.15;;;18.60;99.90;;;;;;5013712;28;20042;-74
2023/05/12 08:21:37;;;;;;;10.38;5.28;;;18.70;99.00;;;;;;5013338;28;20041;-74
2023/05/12 08:24:03;;;;;;;10.65;5.38;;;18.70;98.70;;;;;;4995823;28;20034;-73
2023/05/12 08:26:28;;;;;;;9.20;4.93;;;18.70;98.40;;;;;;5012706;28;20026;-74
2023/05/12 08:28:54;;;;;;;6.68;5.00;;;18.80;98.50;;;;;;4995682;28;20116;-73
2023/05/12 08:31:20;;;;;;;7.93;5.10;;;18.90;98.40;;;;;;5013074;28;20045;-75
2023/05/12 08:33:45;;;;;;;8.95;4.80;;;19.00;98.50;;;;;;5013297;28;20038;-73
2023/05/12 08:36:11;;;;;;;10.18;5.72;;;19.10;98.00;;;;;;4979749;28;20029;-75
2023/05/12 08:38:37;;;;;;;15.18;5.20;;;19.20;97.40;;;;;;5013282;28;20022;-73
2023/05/12 08:41:18;;;;;;;10.57;4.53;;;19.30;97.90;;;;;;5013519;28;20030;-72
2023/05/12 08:43:49;;;;;;;5.70;4.75;;;19.50;97.50;;;;;;5013479;28;20464;-75
2023/05/12 08:46:15;;;;;;;6.20;5.10;;;19.70;97.30;;;;;;5012044;28;20041;-73
2023/05/12 08:48:41;;;;;;;7.43;4.82;;;19.80;96.80;;;;;;5013093;28;20030;-73
2023/05/12 08:51:10;;;;;;;14.13;5.47;;;19.90;96.50;;;;;;5011865;28;20321;-74
2023/05/12 08:53:37;;;;;;;12.32;5.30;;;20.10;96.60;;;;;;5012826;28;20041;-72
2023/05/12 08:56:05;;;;;;;8.52;4.97;;;20.30;96.70;;;;;;5013366;28;20022;-72
2023/05/12 08:58:32;;;;;;;11.75;5.03;;;20.60;96.40;;;;;;5012110;28;20338;-71
2023/05/12 09:00:59;;;;;;;11.75;5.05;;;20.80;95.80;;;;;;5012722;28;20030;-72
2023/05/12 09:03:27;;;;;;;9.87;5.77;;;21.00;95.90;;;;;;5012806;28;20026;-74
2023/05/12 09:05:55;;;;;;;11.30;6.95;;;21.30;95.50;;;;;;5012654;28;20388;-72
2023/05/12 09:08:21;;;;;;;6.13;4.82;;;21.60;94.90;;;;;;5013009;28;20022;-73
2023/05/12 09:10:56;;;;;;;6.68;4.45;;;21.90;94.50;;;;;;5012572;28;20030;-72
2023/05/12 09:13:46;;;;;;;15.90;4.53;;;22.50;93.60;;;;;;5012551;28;20034;-74
2023/05/12 09:16:17;;;;;;;12.48;5.00;;;23.50;93.40;;;;;;4972969;28;20030;-72
2023/05/12 09:18:54;;;;;;;10.93;3.88;;;24.50;92.40;;;;;;5012664;28;20236;-74
2023/05/12 09:21:20;;;;;;;9.15;4.85;;;25.40;90.40;;;;;;5012450;28;20040;-73
2023/05/12 09:23:53;;;;;;;9.73;4.32;;;26.00;89.70;;;;;;5012401;28;20045;-73
2023/05/12 09:26:20;;;;;;;7.32;4.32;;;26.70;87.80;;;;;;5011636;28;20154;-75
2023/05/12 09:28:45;;;;;;;9.35;4.18;;;27.40;85.70;;;;;;5012728;28;20456;-76
2023/05/12 09:31:22;;;;;;;11.82;4.78;;;27.80;83.20;;;;;;5012244;28;20056;-74
2023/05/12 09:33:49;;;;;;;8.63;5.90;;;28.30;82.70;;;;;;5012389;28;20129;-75
2023/05/12 09:36:20;;;;;;;6.97;4.38;;;29.00;80.60;;;;;;5012021;28;20391;-75
2023/05/12 09:38:46;;;;;;;5.43;4.40;;;29.10;78.40;;;;;;5012653;28;20293;-74
2023/05/12 09:41:11;;;;;;;6.65;4.18;;;29.10;76.30;;;;;;5012763;28;20131;-72
2023/05/12 09:43:44;;;;;;;5.78;3.83;;;29.30;74.60;;;;;;5012034;28;20367;-74
2023/05/12 09:46:10;;;;;;;6.47;4.32;;;29.30;72.90;;;;;;5011870;28;20041;-76
2023/05/12 09:48:37;;;;;;;8.18;3.92;;;29.60;72.60;;;;;;5012098;28;20370;-77
2023/05/12 09:51:04;;;;;;;11.63;8.25;;;29.50;71.10;;;;;;5012437;28;20037;-79
2023/05/12 09:53:30;;;;;;;8.02;4.70;;;29.60;70.00;;;;;;5013370;28;20060;-77
2023/05/12 09:55:56;;;;;;;7.45;3.95;;;29.70;69.40;;;;;;5011823;28;20037;-76
2023/05/12 09:58:25;;;;;;;8.43;4.50;;;29.30;69.40;;;;;;5011953;28;20049;-77
2023/05/12 10:00:52;;;;;;;8.85;3.97;;;28.90;70.00;;;;;;5012184;28;20026;-76
2023/05/12 10:03:22;;;;;;;5.13;3.70;;;28.60;70.20;;;;;;5011782;28;20065;-77
2023/05/12 10:05:59;;;;;;;6.25;3.28;;;28.30;69.80;;;;;;5010700;28;20029;-76
2023/05/12 10:08:37;;;;;;;6.03;3.05;;;27.90;66.80;;;;;;5012842;28;20014;-76
2023/05/12 10:11:04;;;;;;;;;;;27.60;66.00;;;;;;5012354;28;20345;-77
2023/05/12 10:13:31;;;;;;;8.77;2.90;;;27.50;65.30;;;;;;5011899;28;20389;-77
2023/05/12 10:15:58;;;;;;;13.63;3.73;;;27.40;67.00;;;;;;5010612;28;20288;-77
2023/05/12 10:18:24;;;;;;;9.07;2.90;;;27.40;66.50;;;;;;5011644;28;20084;-76
2023/05/12 10:20:51;;;;;;;7.50;3.47;;;27.30;66.10;;;;;;4994044;28;20026;-77
2023/05/12 10:23:18;;;;;;;5.15;3.08;;;27.00;65.90;;;;;;5012236;28;20157;-76
2023/05/12 10:25:44;;;;;;;5.80;3.63;;;27.00;67.10;;;;;;5011477;28;20092;-76
2023/05/12 10:28:10;;;;;;;4.43;3.10;;;26.90;66.90;;;;;;5011744;28;20121;-76
2023/05/12 10:30:40;;;;;;;12.82;3.67;;;26.80;66.50;;;;;;5011708;28;20042;-75
2023/05/12 10:33:08;;;;;;;12.75;6.55;;;26.50;64.20;;;;;;5012042;28;20030;-76
2023/05/12 10:35:35;;;;;;;7.10;3.38;;;26.10;64.70;;;;;;5010699;28;20030;-75
2023/05/12 10:38:10;;;;;;;6.55;2.85;;;26.10;66.00;;;;;;5011730;28;20018;-76
2023/05/12 10:40:36;;;;;;;9.82;4.65;;;26.20;65.70;;;;;;5010092;28;20040;-77
2023/05/12 10:43:02;;;;;;;7.57;3.20;;;26.20;66.30;;;;;;5011110;28;20065;-77
2023/05/12 10:45:34;;;;;;;6.63;2.95;;;26.20;65.70;;;;;;5011259;28;20049;-76
2023/05/12 10:48:05;;;;;;;8.07;2.63;;;26.20;65.10;;;;;;5011304;28;20462;-77
2023/05/12 10:50:31;;;;;;;9.80;3.58;;;26.00;63.10;;;;;;5010648;28;20030;-76
2023/05/12 10:52:57;;;;;;;7.32;3.30;;;25.90;63.50;;;;;;5011344;28;20026;-72
2023/05/12 10:55:41;;;;;;;6.43;3.92;;;25.80;64.40;;;;;;5010793;28;20120;-73
2023/05/12 10:58:11;;;;;;;8.07;4.05;;;25.80;63.90;;;;;;5009360;28;20022;-72
2023/05/12 11:00:49;;;;;;;9.70;3.10;;;25.60;64.00;;;;;;5010686;28;20034;-71
2023/05/12 11:03:21;;;;;;;7.85;3.58;;;25.70;65.00;;;;;;5010485;28;20026;-71
2023/05/12 11:05:59;;;;;;;6.28;3.17;;;25.70;62.20;;;;;;5010773;28;20069;-72
2023/05/12 11:08:25;;;;;;;5.82;3.75;;;25.70;64.70;;;;;;5011302;28;20026;-73
2023/05/12 11:10:51;;;;;;;11.05;3.28;;;25.70;63.60;;;;;;5010786;28;20073;-73
2023/05/12 11:13:18;;;;;;;8.80;3.10;;;25.70;65.10;;;;;;5009424;28;20053;-73
2023/05/12 11:15:44;;;;;;;10.30;3.35;;;25.70;64.40;;;;;;5010603;28;20045;-72
2023/05/12 11:18:11;;;;;;;8.50;3.78;;;25.60;62.70;;;;;;5010561;28;20413;-72
2023/05/12 11:20:37;;;;;;;5.07;3.30;;;25.60;61.60;;;;;;5010169;28;20025;-72
2023/05/12 11:23:04;;;;;;;12.65;3.75;;;25.30;61.10;;;;;;5010875;28;20044;-72
2023/05/12 11:25:30;;;;;;;5.53;3.40;;;25.10;61.40;;;;;;5010823;28;20095;-72
2023/05/12 11:27:56;;;;;;;4.95;3.50;;;25.10;62.80;;;;;;5010717;28;20457;-74
2023/05/12 11:30:21;;;;;;;5.53;3.10;;;25.20;62.70;;;;;;5010449;28;20034;-74
2023/05/12 11:32:47;;;;;;;4.47;3.05;;;25.20;62.30;;;;;;5010818;28;20030;-72
2023/05/12 11:35:16;;;;;;;8.50;3.78;;;25.00;60.40;;;;;;5010855;28;20022;-70
2023/05/12 11:37:43;;;;;;;3.92;2.50;;;24.80;60.30;;;;;;5010498;28;20045;-72
2023/05/12 11:40:21;;;;;;;4.40;2.73;;;24.90;61.40;;;;;;5009896;28;20041;-72
2023/05/12 11:42:50;;;;;;;9.02;3.20;;;24.90;60.40;;;;;;5010649;28;20590;-71
2023/05/12 11:45:23;;;;;;;4.38;2.88;;;24.90;60.40;;;;;;5010679;28;20042;-72
2023/05/12 11:47:49;;;;;;;8.80;3.10;;;24.90;60.40;;;;;;5008117;28;20022;-71
2023/05/12 11:50:24;;;;;;;7.05;3.40;;;24.90;59.80;;;;;;4993287;28;20037;-71
2023/05/12 11:52:51;;;;;;;4.45;3.30;;;24.80;59.40;;;;;;4994740;28;20601;-72
2023/05/12 11:55:22;;;;;;;5.72;3.38;;;24.80;60.70;;;;;;4994603;28;20053;-73
2023/05/12 11:58:02;;;;;;;7.35;4.15;;;24.90;61.50;;;;;;4977193;28;20034;-73
2023/05/12 12:00:33;;;;;;;5.57;3.20;;;25.00;60.40;;;;;;4977361;28;20061;-72
2023/05/12 12:03:07;;;;;;;5.47;2.90;;;25.00;59.40;;;;;;4994803;28;20045;-72
2023/05/12 12:05:33;;;;;;;3.97;2.75;;;25.10;60.70;;;;;;4994903;28;20433;-71
2023/05/12 12:08:15;;;;;;;8.00;2.47;;;25.20;60.20;;;;;;4995243;28;20034;-71
2023/05/12 12:10:45;;;;;;;6.88;2.70;;;25.20;60.10;;;;;;4977418;28;20131;-72
2023/05/12 12:13:11;;;;;;;5.35;3.10;;;25.30;59.60;;;;;;4994951;28;20042;-70
2023/05/12 12:15:37;;;;;;;9.43;3.25;;;25.20;59.50;;;;;;4994371;28;20124;-69
2023/05/12 12:18:03;;;;;;;6.40;3.13;;;25.20;60.00;;;;;;4994349;28;20181;-71
2023/05/12 12:20:29;;;;;;;4.57;2.67;;;25.00;60.70;;;;;;4993541;28;20113;-72
2023/05/12 12:22:55;;;;;;;6.78;3.45;;;24.90;60.80;;;;;;4993795;28;20113;-70
2023/05/12 12:25:21;;;;;;;7.63;3.08;;;24.80;62.00;;;;;;4993965;28;20497;-72
2023/05/12 12:27:48;;;;;;;6.85;2.88;;;24.60;59.90;;;;;;4993780;28;20065;-72
2023/05/12 12:30:15;;;;;;;6.25;2.90;;;24.50;60.40;;;;;;4993882;28;20120;-71
2023/05/12 12:32:42;;;;;;;5.18;3.17;;;24.40;61.10;;;;;;4992961;28;20380;-70
2023/05/12 12:35:08;;;;;;;7.70;2.90;;;24.40;62.20;;;;;;4994746;28;20172;-73